createdAt,value
2019-05-23T00:01:26.490Z,12.90
2019-05-23T00:04:23.289Z,12.91
2019-05-23T00:07:16.906Z,12.91
2019-05-23T00:10:09.583Z,12.85
2019-05-23T00:12:55.409Z,12.84
2019-05-23T00:15:42.477Z,12.86
2019-05-23T00:18:20.853Z,12.81
2019-05-23T00:20:52.001Z,12.80
2019-05-23T00:23:25.693Z,12.81
2019-05-23T00:25:59.621Z,12.76
2019-05-23T00:28:35.503Z,12.72
2019-05-23T00:31:21.447Z,12.61
2019-05-23T00:33:55.030Z,12.64
2019-05-23T00:36:29.176Z,12.62
2019-05-23T00:39:03.617Z,12.60
2019-05-23T00:41:37.343Z,12.57
2019-05-23T00:44:10.875Z,12.55
2019-05-23T00:46:43.889Z,12.59
2019-05-23T00:49:18.693Z,12.59
2019-05-23T00:51:52.897Z,12.63
2019-05-23T00:54:26.188Z,12.56
2019-05-23T00:56:59.449Z,12.59
2019-05-23T00:59:33.134Z,12.56
2019-05-23T01:02:07.677Z,12.56
2019-05-23T01:04:42.811Z,12.56
2019-05-23T01:07:17.281Z,12.52
2019-05-23T01:09:52.107Z,12.58
2019-05-23T01:12:25.101Z,12.61
2019-05-23T01:14:58.306Z,12.54
2019-05-23T01:17:33.665Z,12.47
2019-05-23T01:20:10.647Z,12.43
2019-05-23T01:22:45.874Z,12.44
2019-05-23T01:25:23.587Z,12.39
2019-05-23T01:27:56.784Z,12.39
2019-05-23T01:30:36.320Z,12.40
2019-05-23T01:33:10.393Z,12.44
2019-05-23T01:35:45.028Z,12.48
2019-05-23T01:38:19.521Z,12.40
2019-05-23T01:40:54.232Z,12.36
2019-05-23T01:43:27.726Z,12.38
2019-05-23T01:46:02.754Z,12.38
2019-05-23T01:48:35.909Z,12.32
2019-05-23T01:51:11.375Z,12.28
2019-05-23T01:53:44.477Z,12.25
2019-05-23T01:56:18.545Z,12.24
2019-05-23T01:58:51.852Z,12.19
2019-05-23T02:01:25.338Z,12.19
2019-05-23T02:03:58.378Z,12.16
2019-05-23T02:06:32.884Z,12.14
2019-05-23T02:09:09.017Z,12.17
2019-05-23T02:11:43.218Z,12.16
2019-05-23T02:14:16.703Z,12.16
2019-05-23T02:16:50.706Z,12.13
2019-05-23T02:19:23.766Z,12.15
2019-05-23T02:21:57.668Z,12.17
2019-05-23T02:24:31.686Z,12.09
2019-05-23T02:27:05.511Z,12.05
2019-05-23T02:29:39.333Z,12.03
2019-05-23T02:32:12.332Z,11.96
2019-05-23T02:34:45.774Z,11.94
2019-05-23T02:37:34.498Z,11.89
2019-05-23T02:40:18.327Z,11.86
2019-05-23T02:42:56.084Z,11.86
2019-05-23T02:45:35.211Z,11.85
2019-05-23T02:48:12.427Z,11.85
2019-05-23T02:50:56.061Z,11.81
2019-05-23T02:53:33.771Z,11.82
2019-05-23T02:56:11.800Z,11.88
2019-05-23T02:59:13.703Z,11.87
2019-05-23T03:03:03.406Z,11.88
2019-05-23T03:05:38.927Z,11.89
2019-05-23T03:08:12.984Z,11.86
2019-05-23T03:10:58.629Z,11.90
2019-05-23T03:13:34.530Z,11.87
2019-05-23T03:16:07.962Z,11.83
2019-05-23T03:18:46.223Z,11.80
2019-05-23T03:21:21.363Z,11.76
2019-05-23T03:23:54.290Z,11.75
2019-05-23T03:27:06.012Z,11.72
2019-05-23T03:29:39.711Z,11.74
2019-05-23T03:32:49.921Z,11.76
2019-05-23T03:35:44.465Z,11.74
2019-05-23T03:38:17.277Z,11.74
2019-05-23T03:40:50.723Z,11.75
2019-05-23T03:43:23.637Z,11.77
2019-05-23T03:46:02.073Z,11.80
2019-05-23T03:48:36.346Z,11.80
2019-05-23T03:51:10.381Z,11.79
2019-05-23T03:53:46.180Z,11.81
2019-05-23T03:56:20.455Z,11.82
2019-05-23T03:58:56.209Z,11.85
2019-05-23T04:01:45.929Z,11.86
2019-05-23T04:04:07.403Z,11.90
2019-05-23T04:06:40.290Z,11.92
2019-05-23T04:09:13.574Z,11.93
2019-05-23T04:11:46.640Z,11.95
2019-05-23T04:14:20.251Z,12.00
2019-05-23T04:16:53.389Z,12.06
2019-05-23T04:19:26.362Z,12.08
2019-05-23T04:21:59.371Z,12.05
2019-05-23T04:24:32.240Z,12.06
2019-05-23T04:27:05.465Z,12.10
2019-05-23T04:29:38.332Z,12.06
2019-05-23T04:32:11.474Z,12.23
2019-05-23T04:34:44.747Z,12.32
2019-05-23T04:37:17.687Z,12.38
2019-05-23T04:39:50.968Z,12.36
2019-05-23T04:42:24.002Z,12.39
2019-05-23T04:44:56.819Z,12.46
2019-05-23T04:47:31.151Z,12.41
2019-05-23T04:50:04.281Z,12.40
2019-05-23T04:52:37.363Z,12.45
2019-05-23T04:55:13.051Z,12.42
2019-05-23T04:57:47.151Z,12.47
2019-05-23T05:00:21.490Z,12.48
2019-05-23T05:02:55.365Z,12.53
2019-05-23T05:05:28.303Z,12.51
2019-05-23T05:08:01.447Z,12.51
2019-05-23T05:10:34.782Z,12.55
2019-05-23T05:13:08.036Z,12.56
2019-05-23T05:15:40.825Z,12.54
2019-05-23T05:18:14.438Z,12.59
2019-05-23T05:20:47.681Z,12.55
2019-05-23T05:23:20.667Z,12.48
2019-05-23T05:25:53.637Z,12.54
2019-05-23T05:28:26.474Z,12.52
2019-05-23T05:30:59.384Z,12.50
2019-05-23T05:33:32.197Z,12.49
2019-05-23T05:36:05.183Z,12.54
2019-05-23T05:38:38.675Z,12.48
2019-05-23T05:41:11.642Z,12.49
2019-05-23T05:43:44.545Z,12.51
2019-05-23T05:46:19.043Z,12.50
2019-05-23T05:48:52.931Z,12.52
2019-05-23T05:51:25.760Z,12.48
2019-05-23T05:53:59.392Z,12.55
2019-05-23T05:56:32.227Z,12.56
2019-05-23T05:59:05.610Z,12.61
2019-05-23T06:01:38.824Z,12.57
2019-05-23T06:04:11.723Z,12.60
2019-05-23T06:06:50.735Z,12.61
2019-05-23T06:09:26.348Z,12.54
2019-05-23T06:11:59.270Z,12.54
2019-05-23T06:14:32.651Z,12.57
2019-05-23T06:17:08.108Z,12.60
2019-05-23T06:19:41.022Z,12.55
2019-05-23T06:22:14.647Z,12.52
2019-05-23T06:24:53.126Z,12.61
2019-05-23T06:27:24.605Z,12.63
2019-05-23T06:29:58.002Z,12.58
2019-05-23T06:32:35.462Z,12.59
2019-05-23T06:35:16.481Z,12.58
2019-05-23T06:37:55.912Z,12.59
2019-05-23T06:40:29.671Z,12.58
2019-05-23T06:43:03.236Z,12.59
2019-05-23T06:45:36.586Z,12.57
2019-05-23T06:48:11.985Z,12.56
2019-05-23T06:50:47.657Z,12.58
2019-05-23T06:53:25.801Z,12.70
2019-05-23T06:55:58.974Z,12.69
2019-05-23T06:58:38.308Z,12.69
2019-05-23T07:01:18.891Z,12.69
2019-05-23T07:03:57.588Z,12.64
2019-05-23T07:06:34.162Z,12.71
2019-05-23T07:09:14.818Z,12.70
2019-05-23T07:11:47.827Z,12.76
2019-05-23T07:14:23.736Z,12.81
2019-05-23T07:16:56.915Z,12.86
2019-05-23T07:19:30.042Z,12.85
2019-05-23T07:22:03.123Z,12.86
2019-05-23T07:24:37.093Z,12.95
2019-05-23T07:27:10.075Z,13.06
2019-05-23T07:29:43.204Z,13.11
2019-05-23T07:32:16.252Z,13.10
2019-05-23T07:34:49.229Z,13.18
2019-05-23T07:37:22.689Z,13.18
2019-05-23T07:39:55.696Z,13.22
2019-05-23T07:42:28.892Z,13.31
2019-05-23T07:45:03.508Z,13.24
2019-05-23T07:47:39.917Z,13.32
2019-05-23T07:50:13.593Z,13.37
2019-05-23T07:52:46.860Z,13.29
2019-05-23T07:55:27.008Z,13.35
2019-05-23T07:58:05.409Z,13.28
2019-05-23T08:00:41.948Z,13.31
2019-05-23T08:03:15.962Z,13.42
2019-05-23T08:05:48.902Z,13.43
2019-05-23T08:08:23.865Z,13.46
2019-05-23T08:11:00.889Z,13.47
2019-05-23T08:13:34.122Z,13.37
2019-05-23T08:16:07.338Z,13.33
2019-05-23T08:18:40.341Z,13.34
2019-05-23T08:21:14.926Z,13.34
2019-05-23T08:23:49.303Z,13.27
2019-05-23T08:26:22.834Z,13.29
2019-05-23T08:29:24.163Z,13.31
2019-05-23T08:31:32.761Z,13.37
2019-05-23T08:34:06.485Z,13.47
2019-05-23T08:36:39.833Z,13.49
2019-05-23T08:39:14.494Z,13.63
2019-05-23T08:41:47.716Z,13.55
2019-05-23T08:44:20.985Z,13.53
2019-05-23T08:46:54.461Z,13.57
2019-05-23T08:49:27.968Z,13.64
2019-05-23T08:52:00.830Z,13.72
2019-05-23T08:54:33.993Z,13.76
2019-05-23T08:57:08.571Z,13.77
2019-05-23T08:59:41.424Z,13.78
2019-05-23T09:02:17.163Z,13.85
2019-05-23T09:05:03.700Z,13.89
2019-05-23T09:07:25.071Z,14.04
2019-05-23T09:09:58.080Z,14.25
2019-05-23T09:12:31.125Z,14.48
2019-05-23T09:15:04.502Z,14.65
2019-05-23T09:17:52.246Z,14.79
2019-05-23T09:20:14.075Z,14.92
2019-05-23T09:22:48.658Z,14.97
2019-05-23T09:25:23.020Z,15.32
2019-05-23T09:27:56.379Z,15.43
2019-05-23T09:30:31.425Z,15.62
2019-05-23T09:33:06.092Z,15.64
2019-05-23T09:35:39.380Z,15.75
2019-05-23T09:38:12.335Z,15.85
2019-05-23T09:40:46.040Z,15.83
2019-05-23T09:43:22.692Z,15.78
2019-05-23T09:45:58.223Z,15.82
2019-05-23T09:48:31.686Z,15.87
2019-05-23T09:51:04.829Z,15.71
2019-05-23T09:53:38.208Z,15.75
2019-05-23T09:56:11.309Z,15.76
2019-05-23T09:58:44.304Z,15.85
2019-05-23T10:01:19.348Z,15.84
2019-05-23T10:03:52.381Z,15.68
2019-05-23T10:06:27.705Z,15.67
2019-05-23T10:09:01.110Z,15.68
2019-05-23T10:11:35.352Z,15.58
2019-05-23T10:14:12.642Z,15.50
2019-05-23T10:16:46.214Z,15.39
2019-05-23T10:19:22.029Z,15.32
2019-05-23T10:21:54.981Z,15.15
2019-05-23T10:24:28.025Z,15.23
2019-05-23T10:27:00.992Z,15.08
2019-05-23T10:29:34.035Z,15.25
2019-05-23T10:32:10.334Z,15.37
2019-05-23T10:34:43.346Z,15.45
2019-05-23T10:37:19.769Z,15.58
2019-05-23T10:39:56.329Z,15.66
2019-05-23T10:42:29.669Z,15.66
2019-05-23T10:45:04.590Z,15.74
2019-05-23T10:47:39.106Z,15.70
2019-05-23T10:50:15.524Z,15.86
2019-05-23T10:52:48.701Z,15.87
2019-05-23T10:55:21.659Z,15.88
2019-05-23T10:57:54.858Z,15.87
2019-05-23T11:00:29.026Z,15.97
2019-05-23T11:03:04.509Z,15.99
2019-05-23T11:05:38.265Z,16.08
2019-05-23T11:08:11.554Z,16.16
2019-05-23T11:10:46.373Z,16.31
2019-05-23T11:13:20.990Z,16.54
2019-05-23T11:15:54.578Z,16.67
2019-05-23T11:20:46.406Z,16.90
2019-05-23T11:23:25.002Z,16.58
2019-05-23T11:26:01.079Z,16.54
2019-05-23T11:28:34.636Z,16.50
2019-05-23T11:31:08.635Z,16.25
2019-05-23T11:33:41.853Z,16.28
2019-05-23T11:36:31.904Z,16.14
2019-05-23T11:38:50.773Z,16.23
2019-05-23T11:41:25.195Z,16.40
2019-05-23T11:43:58.086Z,16.40
2019-05-23T11:46:37.198Z,16.38
2019-05-23T11:49:10.146Z,16.49
2019-05-23T11:51:43.561Z,16.48
2019-05-23T11:54:16.862Z,16.39
2019-05-23T11:56:50.510Z,16.31
2019-05-23T11:59:24.599Z,16.35
2019-05-23T12:02:12.530Z,16.38
2019-05-23T12:04:45.566Z,16.33
2019-05-23T12:07:25.931Z,16.32
2019-05-23T12:10:00.234Z,16.34
2019-05-23T12:12:33.547Z,16.40
2019-05-23T12:15:09.884Z,16.35
2019-05-23T12:17:44.614Z,16.38
2019-05-23T12:20:18.643Z,16.38
2019-05-23T12:22:51.926Z,16.42
2019-05-23T12:25:26.675Z,16.41
2019-05-23T12:27:59.661Z,16.49
2019-05-23T12:30:32.731Z,16.49
2019-05-23T12:33:06.359Z,16.57
2019-05-23T12:35:41.227Z,16.59
2019-05-23T12:38:15.771Z,16.55
2019-05-23T12:40:48.721Z,16.58
2019-05-23T12:43:21.650Z,16.67
2019-05-23T12:45:54.716Z,16.65
2019-05-23T12:48:38.264Z,16.73
2019-05-23T12:51:11.373Z,16.83
2019-05-23T12:53:44.499Z,16.82
2019-05-23T12:56:18.095Z,16.84
2019-05-23T12:58:51.666Z,16.84
2019-05-23T13:01:25.479Z,16.98
2019-05-23T13:03:59.045Z,17.19
2019-05-23T13:06:33.154Z,17.27
2019-05-23T13:09:09.240Z,17.35
2019-05-23T13:11:42.375Z,17.37
2019-05-23T13:14:16.578Z,17.40
2019-05-23T13:16:49.978Z,17.56
2019-05-23T13:19:23.080Z,17.74
2019-05-23T13:21:57.376Z,17.87
2019-05-23T13:24:50.560Z,18.02
2019-05-23T13:27:09.072Z,17.90
2019-05-23T13:29:42.536Z,17.86
2019-05-23T13:32:16.034Z,17.90
2019-05-23T13:34:49.013Z,17.88
2019-05-23T13:37:23.602Z,17.89
2019-05-23T13:39:56.630Z,17.84
2019-05-23T13:42:29.685Z,17.66
2019-05-23T13:45:02.637Z,17.50
2019-05-23T13:47:35.776Z,17.44
2019-05-23T13:50:09.317Z,17.54
2019-05-23T13:52:42.753Z,17.62
2019-05-23T13:55:16.917Z,17.61
2019-05-23T13:57:50.289Z,17.46
2019-05-23T14:00:25.069Z,17.56
2019-05-23T14:02:58.158Z,17.35
2019-05-23T14:05:31.519Z,17.43
2019-05-23T14:08:12.514Z,17.20
2019-05-23T14:10:40.426Z,17.42
2019-05-23T14:13:13.359Z,17.56
2019-05-23T14:15:49.027Z,17.60
2019-05-23T14:18:22.142Z,17.61
2019-05-23T14:20:55.260Z,17.67
2019-05-23T14:23:33.278Z,17.77
2019-05-23T14:26:06.483Z,17.52
2019-05-23T14:28:39.654Z,17.48
2019-05-23T14:31:35.655Z,17.35
2019-05-23T14:34:17.083Z,17.34
2019-05-23T14:36:59.265Z,17.26
2019-05-23T14:39:44.726Z,17.22
2019-05-23T14:42:45.978Z,17.16
2019-05-23T14:45:35.703Z,17.06
2019-05-23T14:48:26.452Z,17.11
2019-05-23T14:51:15.674Z,17.19
2019-05-23T14:53:52.502Z,17.10
2019-05-23T14:56:27.094Z,17.05
2019-05-23T14:59:00.278Z,16.88
2019-05-23T15:01:34.671Z,16.84
2019-05-23T15:04:08.199Z,16.84
2019-05-23T15:06:41.098Z,16.94
2019-05-23T15:09:14.054Z,16.91
2019-05-23T15:11:47.586Z,16.88
2019-05-23T15:14:20.703Z,16.87
2019-05-23T15:16:53.566Z,16.84
2019-05-23T15:19:41.859Z,16.85
2019-05-23T15:22:01.264Z,16.89
2019-05-23T15:24:34.520Z,16.89
2019-05-23T15:27:07.520Z,16.92
2019-05-23T15:29:40.560Z,16.93
2019-05-23T15:32:13.596Z,16.95
2019-05-23T15:34:46.463Z,16.97
2019-05-23T15:37:19.627Z,16.91
2019-05-23T15:39:52.683Z,16.94
2019-05-23T15:42:25.699Z,16.86
2019-05-23T15:44:58.748Z,16.80
2019-05-23T15:47:33.359Z,16.70
2019-05-23T15:50:11.917Z,16.63
2019-05-23T15:53:02.861Z,16.61
2019-05-23T15:55:57.511Z,16.67
2019-05-23T15:58:39.220Z,16.66
2019-05-23T16:01:19.347Z,16.52
2019-05-23T16:04:05.190Z,16.57
2019-05-23T16:06:40.366Z,16.53
2019-05-23T16:09:28.606Z,16.45
2019-05-23T16:11:48.496Z,16.47
2019-05-23T16:14:22.067Z,16.42
2019-05-23T16:16:56.838Z,16.44
2019-05-23T16:19:30.384Z,16.45
2019-05-23T16:22:04.386Z,16.43
2019-05-23T16:24:37.379Z,16.38
2019-05-23T16:27:12.158Z,16.41
2019-05-23T16:29:44.964Z,16.38
2019-05-23T16:32:17.785Z,16.35
2019-05-23T16:34:50.809Z,16.36
2019-05-23T16:37:23.951Z,16.31
2019-05-23T16:39:56.916Z,16.34
2019-05-23T16:42:30.315Z,16.32
2019-05-23T16:45:03.510Z,16.30
2019-05-23T16:47:36.875Z,16.32
2019-05-23T16:50:10.758Z,16.32
2019-05-23T16:52:49.552Z,16.29
2019-05-23T16:55:33.803Z,16.32
2019-05-23T16:58:16.705Z,16.36
2019-05-23T17:01:01.750Z,16.35
2019-05-23T17:03:43.018Z,16.31
2019-05-23T17:06:43.640Z,16.28
2019-05-23T17:09:35.313Z,16.17
2019-05-23T17:12:25.761Z,16.16
2019-05-23T17:15:10.898Z,16.17
2019-05-23T17:18:14.982Z,16.13
2019-05-23T17:21:06.367Z,16.13
2019-05-23T17:23:58.244Z,16.12
2019-05-23T17:27:08.453Z,16.06
2019-05-23T17:29:48.182Z,16.02
2019-05-23T17:32:25.632Z,16.00
2019-05-23T17:34:59.002Z,15.92
2019-05-23T17:37:32.494Z,15.91
2019-05-23T17:40:06.143Z,15.92
2019-05-23T17:42:39.246Z,15.86
2019-05-23T17:45:14.215Z,15.82
2019-05-23T17:47:47.589Z,15.78
2019-05-23T17:50:20.617Z,15.73
2019-05-23T17:52:53.637Z,15.69
2019-05-23T17:55:28.382Z,15.65
2019-05-23T17:58:01.400Z,15.63
2019-05-23T18:00:41.233Z,15.63
2019-05-23T18:03:15.404Z,15.60
2019-05-23T18:05:48.946Z,15.57
2019-05-23T18:08:23.704Z,15.54
2019-05-23T18:10:57.744Z,15.53
2019-05-23T18:13:32.601Z,15.50
2019-05-23T18:16:06.732Z,15.48
2019-05-23T18:18:40.198Z,15.43
2019-05-23T18:21:13.863Z,15.41
2019-05-23T18:23:48.859Z,15.39
2019-05-23T18:26:22.153Z,15.36
2019-05-23T18:28:56.328Z,15.35
2019-05-23T18:31:32.257Z,15.32
2019-05-23T18:34:07.924Z,15.27
2019-05-23T18:36:41.787Z,15.20
2019-05-23T18:39:17.071Z,15.13
2019-05-23T18:41:50.554Z,15.08
2019-05-23T18:44:24.526Z,15.04
2019-05-23T18:47:00.182Z,15.03
2019-05-23T18:49:34.925Z,15.00
2019-05-23T18:52:09.418Z,15.01
2019-05-23T18:54:45.070Z,15.02
2019-05-23T18:57:19.339Z,15.06
2019-05-23T18:59:53.255Z,15.10
2019-05-23T19:02:27.118Z,15.12
2019-05-23T19:05:02.353Z,15.11
2019-05-23T19:07:35.960Z,15.11
2019-05-23T19:10:11.636Z,15.12
2019-05-23T19:12:45.476Z,15.13
2019-05-23T19:15:19.197Z,15.10
2019-05-23T19:17:53.234Z,15.08
2019-05-23T19:20:26.617Z,15.03
2019-05-23T19:23:01.051Z,15.01
2019-05-23T19:25:37.799Z,14.93
2019-05-23T19:28:12.917Z,14.81
2019-05-23T19:30:46.952Z,14.73
2019-05-23T19:33:20.644Z,14.73
2019-05-23T19:35:54.237Z,14.70
2019-05-23T19:38:28.443Z,14.66
2019-05-23T19:41:02.906Z,14.60
2019-05-23T19:43:48.111Z,14.54
2019-05-23T19:46:21.592Z,14.48
2019-05-23T19:48:59.133Z,14.42
2019-05-23T19:51:37.404Z,14.37
2019-05-23T19:54:41.399Z,14.37
2019-05-23T19:57:30.964Z,14.37
2019-05-23T20:05:06.121Z,14.32
2019-05-23T20:07:41.635Z,14.32
2019-05-23T20:10:16.065Z,14.34
2019-05-23T20:12:49.587Z,14.36
2019-05-23T20:15:23.634Z,14.35
2019-05-23T20:17:57.267Z,14.34
2019-05-23T20:20:34.807Z,14.30
2019-05-23T20:23:09.474Z,14.31
2019-05-23T20:25:42.976Z,14.29
2019-05-23T20:28:16.342Z,14.27
2019-05-23T20:30:58.873Z,14.25
2019-05-23T20:33:32.532Z,14.24
2019-05-23T20:36:12.270Z,14.26
2019-05-23T20:38:47.006Z,14.28
2019-05-23T20:41:22.305Z,14.22
2019-05-23T20:43:55.603Z,14.18
2019-05-23T20:46:29.291Z,14.16
2019-05-23T20:49:02.626Z,14.18
2019-05-23T20:51:37.879Z,14.18
2019-05-23T20:54:14.485Z,14.18
2019-05-23T20:56:48.057Z,14.18
2019-05-23T20:59:21.465Z,14.20
2019-05-23T21:01:54.706Z,14.20
2019-05-23T21:04:27.846Z,14.20
2019-05-23T21:07:01.087Z,14.22
2019-05-23T21:09:34.862Z,14.24
2019-05-23T21:12:08.970Z,14.23
2019-05-23T21:14:42.756Z,14.24
2019-05-23T21:17:16.323Z,14.21
2019-05-23T21:19:49.436Z,14.20
2019-05-23T21:22:22.768Z,14.14
2019-05-23T21:24:56.644Z,14.10
2019-05-23T21:27:30.048Z,14.07
2019-05-23T21:30:03.156Z,14.03
2019-05-23T21:32:37.177Z,14.00
2019-05-23T21:35:10.402Z,13.97
2019-05-23T21:37:43.527Z,13.95
2019-05-23T21:40:32.641Z,13.94
2019-05-23T21:43:05.999Z,13.89
2019-05-23T21:45:39.319Z,13.87
2019-05-23T21:48:13.489Z,13.84
2019-05-23T21:50:46.555Z,13.80
2019-05-23T21:53:20.006Z,13.78
2019-05-23T21:55:53.449Z,13.70
2019-05-23T21:58:26.695Z,13.66
2019-05-23T22:01:57.907Z,13.58
2019-05-23T22:04:38.279Z,13.50
2019-05-23T22:07:12.136Z,13.35
2019-05-23T22:09:45.335Z,13.26
2019-05-23T22:12:18.503Z,13.20
2019-05-23T22:14:51.936Z,13.06
2019-05-23T22:17:26.639Z,12.96
2019-05-23T22:19:59.719Z,12.87
2019-05-23T22:22:33.181Z,12.79
2019-05-23T22:25:06.526Z,12.71
2019-05-23T22:27:39.666Z,12.61
2019-05-23T22:30:12.859Z,12.57
2019-05-23T22:32:46.527Z,12.51
2019-05-23T22:35:20.604Z,12.46
2019-05-23T22:37:53.903Z,12.42
2019-05-23T22:40:26.820Z,12.39
2019-05-23T22:43:00.412Z,12.33
2019-05-23T22:45:34.197Z,12.29
2019-05-23T22:48:07.347Z,12.25
2019-05-23T22:50:40.254Z,12.23
2019-05-23T22:53:13.213Z,12.19
2019-05-23T22:55:46.344Z,12.17
2019-05-23T22:58:19.375Z,12.15
2019-05-23T23:00:52.384Z,12.10
2019-05-23T23:03:25.564Z,12.11
2019-05-23T23:05:58.608Z,12.09
2019-05-23T23:08:33.110Z,12.08
2019-05-23T23:11:06.141Z,12.05
2019-05-23T23:13:39.506Z,11.97
2019-05-23T23:16:13.148Z,11.95
2019-05-23T23:18:46.418Z,11.87
2019-05-23T23:21:19.680Z,11.80
2019-05-23T23:23:52.849Z,11.78
2019-05-23T23:26:25.800Z,11.75
2019-05-23T23:28:59.273Z,11.77
2019-05-23T23:31:32.795Z,11.71
2019-05-23T23:34:05.824Z,11.67
2019-05-23T23:36:38.774Z,11.62
2019-05-23T23:39:11.929Z,11.57
2019-05-23T23:41:44.887Z,11.55
2019-05-23T23:44:18.017Z,11.45
2019-05-23T23:47:08.320Z,11.45
2019-05-23T23:49:58.699Z,11.46
2019-05-23T23:52:49.377Z,11.47
2019-05-23T23:55:40.467Z,11.42
2019-05-23T23:58:12.517Z,11.42
